• Join FlightAware (Why Join?)
  • Login
  • US Flag 
03:01PM EDT


 

Airport Tracker/Info


-or-


 

Live Flight TrackerFlight Track Log ✈ OPT490 ✈ 10-May-2013 ✈ MYAT / TCB - KPBI

Flight Track Log - Related Links

Times and Time Zones

All times are in EDT time to prevent confusion due to time zone crossing. See the OPT490 flight status page for this flight to view local times or setup timezone preferences in your user account.

Time Position Orientation Groundspeed Altitude Reporting Facility
EDT Latitude Longitude Course Direction KTS MPH feet Rate Location/Type
04:22PM 26.8553 -77.6528 251° West 292 336 15,200  Level Miami Center
04:23PM 26.8275 -77.7528 253° West 298 343 16,000 360 Climbing Miami Center
04:24PM 26.8019 -77.8386 252° West 306 352 16,000 -60 Level Miami Center
04:25PM 26.7719 -77.9408 252° West 328 377 15,900  Descending Miami Center
04:26PM 26.7442 -78.0383 252° West 339 390 16,000  Climbing Miami Center
04:27PM 26.7139 -78.1472 253° West 345 397 16,000  Level Miami Center
04:28PM 26.6836 -78.2492 252° West 353 406 16,000  Level Miami Center
04:29PM 26.6533 -78.3583 253° West 355 409 16,000  Level Miami Center
04:30PM 26.6231 -78.4600 252° West 355 409 16,000  Level Miami Center
04:31PM 26.6011 -78.5528 255° West 340 391 16,000  Level Miami Center
04:32PM 26.5664 -78.6636 251° West 356 410 16,000 -60 Level Miami Center
04:33PM 26.5775 -78.7731 277° West 347 399 15,900 -120 Descending Miami Center
04:34PM 26.6117 -78.8736 291° West 339 390 15,800 -600 Descending Miami Center
04:35PM 26.6394 -78.9694 288° West 339 390 14,700 -1,080 Descending Miami Center
04:36PM 26.6797 -79.0747 293° West 344 396 13,700 -1,020 Descending Miami Center
04:37PM 26.7075 -79.1683 288° West 344 396 12,700 -1,080 Descending Miami Center
04:38PM 26.7394 -79.2642 290° West 338 389 11,600 -1,080 Descending Miami Center
04:39PM 26.7631 -79.3439 288° West 313 360 10,600 -1,020 Descending Miami Center
04:40PM 26.7889 -79.4258 289° West 280 322 9,600 -1,620 Descending Miami Center
04:41PM 26.8061 -79.5169 282° West 269 310 7,400 -2,100 Descending Miami Center
04:42PM 26.8067 -79.5939 270° West 269 310 5,500 -1,980 Descending Miami Center
04:43PM 26.8158 -79.6708 278° West 269 310 3,500 -1,260 Descending Miami Center
04:44PM 26.8181 -79.7639 272° West 277 319 3,000 -300 Descending Miami Center
04:45PM 26.8122 -79.8478 266° West 277 319 3,000  Level Miami Center
04:46PM 26.8083 -79.9314 267° West 277 319 3,000  Level Miami Center
04:47PM 26.8047 -80.0011 267° West 260 299 3,000  Level Miami Center
04:49PM 26.6932 -80.0878 North  Level Estimated
04:56PM 26.6832 -80.0956 North  Level Estimated
04:57PM 26.6832 -80.0956 North  Level Estimated
04:58PM 26.6832 -80.0956 North  Level Estimated
04:59PM 26.6832 -80.0956 North  Level Estimated
05:00PM 26.6832 -80.0956 North  Level Estimated
05:01PM 26.6832 -80.0956 North  Level Estimated